Time;durP1;ratioP1;P1;durP2;ratioP2;P2;SDS_P1;SDS_P2;PMS_P1;PMS_P2;Temp;Humidity;BMP_temperature;BMP_pressure;BME280_temperature;BME280_humidity;BME280_pressure;Samples;Min_cycle;Max_cycle;Signal;HPM_P1;HPM_P2
2020/12/11 00:00:48;;;;;;;;;;;1.70;99.90;;;;;;5116642;28;20266;-71
2020/12/11 00:03:14;;;;;;;;;;;1.70;99.90;;;;;;5113443;28;20361;-70
2020/12/11 00:05:41;;;;;;;;;;;1.70;99.90;;;;;;5115457;28;19931;-70
2020/12/11 00:08:08;;;;;;;;;;;1.70;99.90;;;;;;5112176;28;20321;-70
2020/12/11 00:10:34;;;;;;;;;;;1.80;99.90;;;;;;5115395;28;19928;-70
2020/12/11 00:13:00;;;;;;;;;;;1.80;99.90;;;;;;5112305;28;19923;-70
2020/12/11 00:15:28;;;;;;;;;;;1.70;99.90;;;;;;5115407;28;19924;-71
2020/12/11 00:17:54;;;;;;;;;;;1.70;99.90;;;;;;5112237;27;19932;-71
2020/12/11 00:20:20;;;;;;;;;;;1.80;99.90;;;;;;5115462;28;19931;-70
2020/12/11 00:22:47;;;;;;;;;;;1.70;99.90;;;;;;5113896;27;19924;-73
2020/12/11 00:25:13;;;;;;;;;;;1.80;99.90;;;;;;5113821;28;19924;-70
2020/12/11 00:27:40;;;;;;;;;;;1.80;99.90;;;;;;5113852;28;20398;-71
2020/12/11 00:30:06;;;;;;;;;;;1.80;99.90;;;;;;5111698;28;19924;-70
2020/12/11 00:32:36;;;;;;;;;;;1.70;99.90;;;;;;5114728;28;19977;-71
2020/12/11 00:35:03;;;;;;;;;;;1.80;99.90;;;;;;5111545;28;19989;-71
2020/12/11 00:37:31;;;;;;;;;;;1.80;99.90;;;;;;5114719;28;20018;-71
2020/12/11 00:39:57;;;;;;;;;;;1.80;99.90;;;;;;5111548;28;19977;-71
2020/12/11 00:42:25;;;;;;;;;;;1.80;99.90;;;;;;5114864;28;20366;-70
2020/12/11 00:44:52;;;;;;;;;;;1.80;99.90;;;;;;5111667;28;20019;-73
2020/12/11 00:47:18;;;;;;;;;;;1.80;99.90;;;;;;5114846;28;19924;-72
2020/12/11 00:49:46;;;;;;;;;;;1.90;99.90;;;;;;5110389;28;20443;-71
2020/12/11 00:52:13;;;;;;;;;;;1.90;99.90;;;;;;5113461;28;20010;-71
2020/12/11 00:54:46;;;;;;;;;;;1.90;99.90;;;;;;5110587;28;20022;-71
2020/12/11 00:57:13;;;;;;;;;;;2.00;99.90;;;;;;5114629;28;19963;-70
2020/12/11 00:59:40;;;;;;;;;;;2.00;99.90;;;;;;5112094;28;19923;-70
2020/12/11 01:02:06;;;;;;;;;;;1.90;99.90;;;;;;5113970;28;20052;-70
2020/12/11 01:04:32;;;;;;;;;;;2.00;99.90;;;;;;5112151;28;19928;-71
2020/12/11 01:06:59;;;;;;;;;;;2.00;99.90;;;;;;5112530;28;19928;-70
2020/12/11 01:09:26;;;;;;;;;;;2.10;99.90;;;;;;5113827;28;19949;-71
2020/12/11 01:11:52;;;;;;;;;;;2.00;99.90;;;;;;5111237;28;19932;-71
2020/12/11 01:14:18;;;;;;;;;;;2.00;99.90;;;;;;5114272;28;19930;-70
2020/12/11 01:16:45;;;;;;;;;;;2.10;99.90;;;;;;5111397;28;19935;-69
2020/12/11 01:19:11;;;;;;;;;;;2.10;99.90;;;;;;5113269;28;19928;-71
2020/12/11 01:21:38;;;;;;;;;;;2.10;99.90;;;;;;5111346;28;19977;-71
2020/12/11 01:24:05;;;;;;;;;;;2.10;99.90;;;;;;5113188;28;19928;-71
2020/12/11 01:26:31;;;;;;;;;;;2.10;99.90;;;;;;5111741;28;20420;-71
2020/12/11 01:28:57;;;;;;;;;;;2.00;99.90;;;;;;5113279;28;19923;-71
2020/12/11 01:31:24;;;;;;;;;;;2.10;99.90;;;;;;5111039;28;19969;-71
2020/12/11 01:33:50;;;;;;;;;;;2.10;99.90;;;;;;5112805;28;20415;-71
2020/12/11 01:36:23;;;;;;;;;;;2.10;99.90;;;;;;5110779;28;19931;-71
2020/12/11 01:38:49;;;;;;;;;;;2.00;99.90;;;;;;5112801;28;19923;-69
2020/12/11 01:41:16;;;;;;;;;;;2.00;99.90;;;;;;5109444;28;20322;-69
2020/12/11 01:43:43;;;;;;;;;;;2.00;99.90;;;;;;5113595;28;19923;-71
2020/12/11 01:46:12;;;;;;;;;;;1.90;99.90;;;;;;5110325;28;19928;-71
2020/12/11 01:48:39;;;;;;;;;;;1.90;99.90;;;;;;5113608;28;19924;-71
2020/12/11 01:51:05;;;;;;;;;;;1.90;99.90;;;;;;5112950;27;19967;-71
2020/12/11 01:53:32;;;;;;;;;;;1.90;99.90;;;;;;5110496;28;19930;-71
2020/12/11 01:55:59;;;;;;;;;;;1.90;99.90;;;;;;5112857;28;19967;-71
2020/12/11 01:58:26;;;;;;;;;;;1.90;99.90;;;;;;5111032;28;19930;-70
2020/12/11 02:00:55;;;;;;;;;;;1.90;99.90;;;;;;5112911;28;19924;-71
2020/12/11 02:03:22;;;;;;;;;;;1.90;99.90;;;;;;5110813;28;19924;-70
2020/12/11 02:05:48;;;;;;;;;;;2.00;99.90;;;;;;5112405;28;20407;-71
2020/12/11 02:08:15;;;;;;;;;;;1.90;99.90;;;;;;5110611;28;19938;-70
2020/12/11 02:10:45;;;;;;;;;;;2.00;99.90;;;;;;5112613;28;19982;-70
2020/12/11 02:13:11;;;;;;;;;;;2.00;99.90;;;;;;5111424;28;19970;-71
2020/12/11 02:15:38;;;;;;;;;;;1.90;99.90;;;;;;5113958;28;20261;-71
2020/12/11 02:18:04;;;;;;;;;;;1.90;99.90;;;;;;5109656;28;20411;-70
2020/12/11 02:20:31;;;;;;;;;;;1.90;99.90;;;;;;5113102;28;19924;-70
2020/12/11 02:22:58;;;;;;;;;;;1.90;99.90;;;;;;5110039;28;20015;-71
2020/12/11 02:25:24;;;;;;;;;;;1.90;99.90;;;;;;5112779;28;19928;-71
2020/12/11 02:27:51;;;;;;;;;;;2.00;99.90;;;;;;5109598;28;19930;-71
2020/12/11 02:30:18;;;;;;;;;;;1.90;99.90;;;;;;5113123;28;19940;-70
2020/12/11 02:32:44;;;;;;;;;;;1.90;99.90;;;;;;5112427;28;19935;-71
2020/12/11 02:35:10;;;;;;;;;;;1.90;99.90;;;;;;5110672;28;19923;-70
2020/12/11 02:37:38;;;;;;;;;;;2.00;99.90;;;;;;5112773;28;20363;-71
2020/12/11 02:40:06;;;;;;;;;;;2.00;99.90;;;;;;5109472;28;19928;-71
2020/12/11 02:42:32;;;;;;;;;;;1.90;99.90;;;;;;5112857;28;19924;-70
2020/12/11 02:44:58;;;;;;;;;;;2.00;99.90;;;;;;5109856;28;19924;-70
2020/12/11 02:47:25;;;;;;;;;;;2.00;99.90;;;;;;5113888;28;19924;-70
2020/12/11 02:49:51;;;;;;;;;;;2.00;99.90;;;;;;5113915;28;20369;-71
2020/12/11 02:52:18;;;;;;;;;;;1.90;99.90;;;;;;5117097;28;19949;-70
2020/12/11 02:54:46;;;;;;;;;;;1.90;99.90;;;;;;5114506;28;19927;-70
2020/12/11 02:57:13;;;;;;;;;;;2.00;99.90;;;;;;5116678;28;19993;-70
2020/12/11 02:59:39;;;;;;;;;;;2.10;99.90;;;;;;5114229;28;20330;-70
2020/12/11 03:02:05;;;;;;;;;;;2.10;99.90;;;;;;5116183;28;19966;-71
2020/12/11 03:04:32;;;;;;;;;;;2.10;99.90;;;;;;5114436;28;19969;-71
2020/12/11 03:06:58;;;;;;;;;;;2.10;99.90;;;;;;5115874;28;19931;-71
2020/12/11 03:09:24;;;;;;;;;;;2.00;99.90;;;;;;5113690;28;19928;-73
2020/12/11 03:11:51;;;;;;;;;;;1.90;99.90;;;;;;5115822;28;19924;-71
2020/12/11 03:14:18;;;;;;;;;;;1.90;99.90;;;;;;5116170;28;19978;-71
2020/12/11 03:16:44;;;;;;;;;;;1.80;99.90;;;;;;5114493;28;19928;-71
2020/12/11 03:19:10;;;;;;;;;;;1.80;99.90;;;;;;5115591;28;20376;-70
2020/12/11 03:21:37;;;;;;;;;;;1.80;99.90;;;;;;5113906;28;19928;-70
2020/12/11 03:24:03;;;;;;;;;;;1.80;99.90;;;;;;5115777;28;20300;-70
2020/12/11 03:26:29;;;;;;;;;;;1.70;99.90;;;;;;5113827;28;19927;-70
2020/12/11 03:28:55;;;;;;;;;;;1.70;99.90;;;;;;5115646;28;20354;-70
2020/12/11 03:31:23;;;;;;;;;;;1.80;99.90;;;;;;5113803;27;19974;-70
2020/12/11 03:33:49;;;;;;;;;;;1.80;99.90;;;;;;5115164;28;19966;-71
2020/12/11 03:36:19;;;;;;;;;;;1.80;99.90;;;;;;5113887;28;20380;-69
2020/12/11 03:38:46;;;;;;;;;;;1.80;99.90;;;;;;5115796;28;20291;-70
2020/12/11 03:41:14;;;;;;;;;;;1.90;99.90;;;;;;5112770;27;20400;-70
2020/12/11 03:43:40;;;;;;;;;;;1.80;99.90;;;;;;5114674;28;20338;-70
2020/12/11 03:46:06;;;;;;;;;;;1.90;99.90;;;;;;5112871;28;20360;-70
2020/12/11 03:48:33;;;;;;;;;;;1.90;99.90;;;;;;5115963;28;19982;-70
2020/12/11 03:51:00;;;;;;;;;;;1.80;99.90;;;;;;5112657;28;19923;-70
2020/12/11 03:53:26;;;;;;;;;;;1.90;99.90;;;;;;5115613;28;19924;-71
2020/12/11 03:55:56;;;;;;;;;;;2.00;99.90;;;;;;5115260;28;19977;-70
2020/12/11 03:58:23;;;;;;;;;;;2.00;99.90;;;;;;5113996;28;19985;-70
2020/12/11 04:00:51;;;;;;;;;;;2.00;99.90;;;;;;5114188;28;19924;-70
2020/12/11 04:03:17;;;;;;;;;;;2.00;99.90;;;;;;5113358;28;19923;-70
2020/12/11 04:05:44;;;;;;;;;;;2.00;99.90;;;;;;5115129;27;19931;-70
2020/12/11 04:08:11;;;;;;;;;;;2.00;99.90;;;;;;5112492;28;19924;-70
2020/12/11 04:10:37;;;;;;;;;;;1.90;99.90;;;;;;5114967;28;20388;-70
2020/12/11 04:13:03;;;;;;;;;;;2.00;99.90;;;;;;5112315;27;20022;-70
2020/12/11 04:15:29;;;;;;;;;;;2.00;99.90;;;;;;5115345;28;19959;-70
2020/12/11 04:17:56;;;;;;;;;;;2.00;99.90;;;;;;5112155;28;19923;-70
2020/12/11 04:20:22;;;;;;;;;;;1.90;99.90;;;;;;5115205;27;19923;-70
2020/12/11 04:22:49;;;;;;;;;;;2.00;99.90;;;;;;5112364;28;19923;-71
2020/12/11 04:25:16;;;;;;;;;;;1.90;99.90;;;;;;5115157;28;20265;-68
2020/12/11 04:27:42;;;;;;;;;;;1.90;99.90;;;;;;5112583;28;20410;-69
2020/12/11 04:30:08;;;;;;;;;;;2.00;99.90;;;;;;5114185;28;19938;-68
2020/12/11 04:32:35;;;;;;;;;;;2.10;99.90;;;;;;5112272;28;19931;-70
2020/12/11 04:35:01;;;;;;;;;;;2.00;99.90;;;;;;5114447;28;19977;-70
2020/12/11 04:37:28;;;;;;;;;;;2.00;99.90;;;;;;5114660;28;19924;-71
2020/12/11 04:39:55;;;;;;;;;;;2.10;99.90;;;;;;5111447;28;20403;-70
2020/12/11 04:42:22;;;;;;;;;;;2.00;99.90;;;;;;5115158;28;20391;-69
2020/12/11 04:44:49;;;;;;;;;;;2.00;99.90;;;;;;5111716;28;19969;-69
2020/12/11 04:47:15;;;;;;;;;;;2.00;99.90;;;;;;5114959;28;19937;-71
2020/12/11 04:49:42;;;;;;;;;;;2.00;99.90;;;;;;5112157;28;19962;-70
2020/12/11 04:52:12;;;;;;;;;;;2.10;99.90;;;;;;5112889;28;19939;-70
2020/12/11 04:54:38;;;;;;;;;;;2.00;99.90;;;;;;5112102;27;19930;-71
2020/12/11 04:57:09;;;;;;;;;;;2.10;99.90;;;;;;5113821;28;19935;-70
2020/12/11 04:59:36;;;;;;;;;;;2.30;99.90;;;;;;5111835;28;19931;-70
2020/12/11 05:02:09;;;;;;;;;;;2.30;99.90;;;;;;5113920;28;19930;-69
2020/12/11 05:04:37;;;;;;;;;;;2.40;99.90;;;;;;5112027;28;19963;-71
2020/12/11 05:07:04;;;;;;;;;;;2.40;99.90;;;;;;5113772;28;19927;-69
2020/12/11 05:09:31;;;;;;;;;;;2.40;99.90;;;;;;5111308;27;20395;-71
2020/12/11 05:11:57;;;;;;;;;;;2.50;99.90;;;;;;5113494;28;19970;-70
2020/12/11 05:14:25;;;;;;;;;;;2.70;99.90;;;;;;5113197;28;19924;-70
2020/12/11 05:16:58;;;;;;;;;;;2.60;99.90;;;;;;5113975;28;19977;-71
2020/12/11 05:19:25;;;;;;;;;;;2.30;99.90;;;;;;5111682;28;19934;-71
2020/12/11 05:21:51;;;;;;;;;;;2.10;99.90;;;;;;5112292;28;19931;-70
2020/12/11 05:24:18;;;;;;;;;;;2.20;99.90;;;;;;5112683;28;19977;-70
2020/12/11 05:26:44;;;;;;;;;;;2.20;99.90;;;;;;5111292;28;19924;-70
2020/12/11 05:29:10;;;;;;;;;;;2.20;99.90;;;;;;5112099;28;20330;-70
2020/12/11 05:31:38;;;;;;;;;;;2.10;99.90;;;;;;5110964;28;19946;-70
2020/12/11 05:34:08;;;;;;;;;;;2.00;99.90;;;;;;5112982;28;19931;-70
2020/12/11 05:36:58;;;;;;;;;;;2.00;99.90;;;;;;5095551;28;19969;-70
2020/12/11 05:39:31;;;;;;;;;;;1.90;99.90;;;;;;5113267;28;20380;-71
2020/12/11 05:41:58;;;;;;;;;;;1.90;99.90;;;;;;5110444;28;19931;-70
2020/12/11 05:44:25;;;;;;;;;;;1.90;99.90;;;;;;5112211;28;19923;-70
2020/12/11 05:46:52;;;;;;;;;;;1.90;99.90;;;;;;5110637;28;20368;-70
2020/12/11 05:49:26;;;;;;;;;;;2.00;99.90;;;;;;5112341;28;19977;-70
2020/12/11 05:51:56;;;;;;;;;;;1.90;99.90;;;;;;5110244;28;19976;-70
2020/12/11 05:54:23;;;;;;;;;;;2.00;99.90;;;;;;5113545;28;19924;-69
2020/12/11 05:56:51;;;;;;;;;;;2.00;99.90;;;;;;5110375;28;19931;-72
2020/12/11 05:59:19;;;;;;;;;;;2.00;99.90;;;;;;5113383;28;19924;-71
2020/12/11 06:01:46;;;;;;;;;;;2.00;99.90;;;;;;5110906;28;19934;-69
2020/12/11 06:04:14;;;;;;;;;;;2.00;99.90;;;;;;5113348;28;19927;-69
2020/12/11 06:06:42;;;;;;;;;;;2.00;99.90;;;;;;5097693;28;19924;-69
2020/12/11 06:09:10;;;;;;;;;;;1.90;99.90;;;;;;5112118;28;20411;-70
2020/12/11 06:11:45;;;;;;;;;;;1.90;99.90;;;;;;5108854;28;19928;-70
2020/12/11 06:14:17;;;;;;;;;;;1.90;99.90;;;;;;5112284;27;19927;-69
2020/12/11 06:16:44;;;;;;;;;;;1.90;99.90;;;;;;5110391;28;20380;-70
2020/12/11 06:19:10;;;;;;;;;;;1.90;99.90;;;;;;5112437;28;20003;-70
2020/12/11 06:21:38;;;;;;;;;;;1.90;99.90;;;;;;5111047;28;20295;-70
2020/12/11 06:24:24;;;;;;;;;;;1.90;99.90;;;;;;5111294;28;19924;-69
2020/12/11 06:26:55;;;;;;;;;;;1.90;99.90;;;;;;5109857;28;19924;-70
2020/12/11 06:29:25;;;;;;;;;;;1.90;99.90;;;;;;5092113;28;19963;-70
2020/12/11 06:31:51;;;;;;;;;;;1.80;99.90;;;;;;5089555;28;19972;-70
2020/12/11 06:34:19;;;;;;;;;;;1.80;99.90;;;;;;5109394;28;20305;-69
2020/12/11 06:36:47;;;;;;;;;;;1.80;99.90;;;;;;5112637;28;19983;-70
2020/12/11 06:39:29;;;;;;;;;;;1.90;99.90;;;;;;5110026;28;20380;-70
2020/12/11 06:41:56;;;;;;;;;;;1.80;99.90;;;;;;5110839;28;20363;-70
2020/12/11 06:44:22;;;;;;;;;;;1.90;99.90;;;;;;5110261;28;19977;-70
2020/12/11 06:47:06;;;;;;;;;;;1.80;99.90;;;;;;5112063;28;19992;-71
2020/12/11 06:49:32;;;;;;;;;;;1.80;99.90;;;;;;5110078;28;19931;-70
2020/12/11 06:52:22;;;;;;;;;;;1.80;99.90;;;;;;5112243;28;20265;-70
2020/12/11 06:54:53;;;;;;;;;;;1.80;99.90;;;;;;5088349;28;19977;-71
2020/12/11 06:57:33;;;;;;;;;;;1.80;99.90;;;;;;5112790;28;19930;-70
2020/12/11 06:59:59;;;;;;;;;;;1.80;99.90;;;;;;5109605;28;19924;-70
2020/12/11 07:02:25;;;;;;;;;;;1.70;99.90;;;;;;5112342;28;19934;-70
2020/12/11 07:04:52;;;;;;;;;;;1.70;99.90;;;;;;5109223;28;20018;-71
2020/12/11 07:07:29;;;;;;;;;;;1.70;99.90;;;;;;5112328;28;20346;-70
2020/12/11 07:09:56;;;;;;;;;;;1.70;99.90;;;;;;5108840;28;19927;-70
2020/12/11 07:12:24;;;;;;;;;;;1.80;99.90;;;;;;5112203;28;19927;-70
2020/12/11 07:14:52;;;;;;;;;;;1.70;99.90;;;;;;5109494;28;19927;-70
2020/12/11 07:17:25;;;;;;;;;;;1.70;99.90;;;;;;5106787;28;20415;-70
2020/12/11 07:19:51;;;;;;;;;;;1.70;99.90;;;;;;5097543;28;19928;-71
2020/12/11 07:22:19;;;;;;;;;;;1.70;99.90;;;;;;5111888;28;19924;-70
2020/12/11 07:24:45;;;;;;;;;;;1.80;99.90;;;;;;5109916;28;19928;-70
2020/12/11 07:27:13;;;;;;;;;;;1.80;99.90;;;;;;5111444;28;20296;-71
2020/12/11 07:29:48;;;;;;;;;;;1.70;99.90;;;;;;5109212;28;20021;-70
2020/12/11 07:32:17;;;;;;;;;;;1.80;99.90;;;;;;5112067;28;19976;-71
2020/12/11 07:34:43;;;;;;;;;;;1.80;99.90;;;;;;5110295;28;20357;-71
2020/12/11 07:37:10;;;;;;;;;;;1.80;99.90;;;;;;5115648;28;19934;-70
2020/12/11 07:39:36;;;;;;;;;;;1.80;99.90;;;;;;5113165;28;20402;-73
2020/12/11 07:42:04;;;;;;;;;;;1.90;99.90;;;;;;5113960;28;19969;-70
2020/12/11 07:44:32;;;;;;;;;;;1.90;99.90;;;;;;5113150;28;19924;-70
2020/12/11 07:46:59;;;;;;;;;;;1.80;99.90;;;;;;5111827;27;19977;-70
2020/12/11 07:49:33;;;;;;;;;;;1.90;99.90;;;;;;5115202;28;19974;-71
2020/12/11 07:52:01;;;;;;;;;;;1.90;99.90;;;;;;5109101;28;20285;-71
2020/12/11 07:54:33;;;;;;;;;;;1.90;99.90;;;;;;5116137;28;20245;-70
2020/12/11 07:57:07;;;;;;;;;;;2.00;99.90;;;;;;5096795;28;19945;-70
2020/12/11 07:59:34;;;;;;;;;;;2.00;99.90;;;;;;5109571;28;20327;-71
2020/12/11 08:02:01;;;;;;;;;;;2.00;99.90;;;;;;5103935;28;19925;-69
2020/12/11 08:04:27;;;;;;;;;;;2.00;99.90;;;;;;5095303;28;19923;-70
2020/12/11 08:06:57;;;;;;;;;;;2.00;99.90;;;;;;5104958;28;20022;-72
2020/12/11 08:09:28;;;;;;;;;;;2.00;99.90;;;;;;5114490;28;19930;-75
2020/12/11 08:11:55;;;;;;;;;;;2.00;99.90;;;;;;5111460;28;19967;-72
2020/12/11 08:14:21;;;;;;;;;;;2.00;99.90;;;;;;5115758;28;19924;-73
2020/12/11 08:16:50;;;;;;;;;;;2.10;99.90;;;;;;5113293;27;19927;-71
2020/12/11 08:19:16;;;;;;;;;;;2.10;99.90;;;;;;5115571;28;20307;-72
2020/12/11 08:21:43;;;;;;;;;;;2.10;99.90;;;;;;5112838;28;20379;-72
2020/12/11 08:24:09;;;;;;;;;;;2.20;99.90;;;;;;5114739;28;19930;-71
2020/12/11 08:26:39;;;;;;;;;;;2.20;99.90;;;;;;5113108;28;19928;-71
2020/12/11 08:29:06;;;;;;;;;;;2.30;99.90;;;;;;5113038;28;20341;-71
2020/12/11 08:31:37;;;;;;;;;;;2.30;99.90;;;;;;5114870;28;19968;-70
2020/12/11 08:34:05;;;;;;;;;;;2.30;99.90;;;;;;5113452;28;19928;-71
2020/12/11 08:36:33;;;;;;;;;;;2.30;99.90;;;;;;5114854;28;19985;-71
2020/12/11 08:39:19;;;;;;;;;;;2.40;99.90;;;;;;5112083;28;19930;-71
2020/12/11 08:42:01;;;;;;;;;;;2.50;99.90;;;;;;5114657;28;20344;-71
2020/12/11 08:44:38;;;;;;;;;;;2.50;99.90;;;;;;5113633;28;19923;-70
2020/12/11 08:47:15;;;;;;;;;;;2.50;99.90;;;;;;5112479;28;19928;-70
2020/12/11 08:49:46;;;;;;;;;;;2.60;99.90;;;;;;5113619;28;19931;-71
2020/12/11 08:52:12;;;;;;;;;;;2.60;99.90;;;;;;5114245;28;19935;-71
2020/12/11 08:54:39;;;;;;;;;;;2.60;99.90;;;;;;5112284;28;19924;-70
2020/12/11 08:57:05;;;;;;;;;;;2.60;99.90;;;;;;5114013;28;19935;-71
2020/12/11 08:59:31;;;;;;;;;;;2.60;99.90;;;;;;5111837;28;19950;-71
2020/12/11 09:02:00;;;;;;;;;;;2.70;99.90;;;;;;5113550;28;19924;-71
2020/12/11 09:04:26;;;;;;;;;;;2.70;99.90;;;;;;5111705;28;19970;-71
2020/12/11 09:06:53;;;;;;;;;;;2.70;99.90;;;;;;5113813;28;19924;-71
2020/12/11 09:09:20;;;;;;;;;;;2.70;99.90;;;;;;5111372;28;19930;-71
2020/12/11 09:11:46;;;;;;;;;;;2.70;99.90;;;;;;5114414;28;20022;-71
2020/12/11 09:14:13;;;;;;;;;;;2.80;99.90;;;;;;5111376;28;19928;-71
2020/12/11 09:16:39;;;;;;;;;;;2.80;99.90;;;;;;5114010;28;19924;-71
2020/12/11 09:19:05;;;;;;;;;;;2.80;99.90;;;;;;5110982;28;19973;-71
2020/12/11 09:21:32;;;;;;;;;;;2.90;99.90;;;;;;5113844;28;19928;-71
2020/12/11 09:23:59;;;;;;;;;;;2.90;99.90;;;;;;5109486;28;19923;-71
2020/12/11 09:26:27;;;;;;;;;;;2.90;99.90;;;;;;5114255;28;19928;-70
2020/12/11 09:28:59;;;;;;;;;;;2.90;99.90;;;;;;5111132;28;19923;-70
2020/12/11 09:31:26;;;;;;;;;;;2.90;99.90;;;;;;5114153;28;20093;-73
2020/12/11 09:33:55;;;;;;;;;;;2.90;99.90;;;;;;5113239;28;19930;-71
2020/12/11 09:36:24;;;;;;;;;;;2.90;99.90;;;;;;5111362;28;20031;-71
2020/12/11 09:38:50;;;;;;;;;;;2.80;99.90;;;;;;5113360;28;19924;-72
2020/12/11 09:41:21;;;;;;;;;;;2.90;99.90;;;;;;5111360;28;19924;-70
2020/12/11 09:44:06;;;;;;;;;;;3.00;99.90;;;;;;5113345;28;20392;-70
2020/12/11 09:46:39;;;;;;;;;;;3.10;99.90;;;;;;5111645;28;19933;-71
2020/12/11 09:49:09;;;;;;;;;;;3.10;99.90;;;;;;5113170;28;19935;-71
2020/12/11 09:51:54;;;;;;;;;;;3.30;99.90;;;;;;5110974;28;19927;-71
2020/12/11 09:54:23;;;;;;;;;;;3.40;99.90;;;;;;5113635;28;19924;-71
2020/12/11 09:56:50;;;;;;;;;;;3.30;99.90;;;;;;5109839;28;19924;-71
2020/12/11 09:59:18;;;;;;;;;;;3.20;99.90;;;;;;5113799;28;19930;-70
2020/12/11 10:04:28;;;;;;;;;;;3.20;99.90;;;;;;5102918;28;19924;-71
2020/12/11 10:06:55;;;;;;;;;;;3.30;99.90;;;;;;5110175;28;19934;-71
2020/12/11 10:09:21;;;;;;;;;;;3.20;99.90;;;;;;5113163;28;19973;-71
2020/12/11 10:11:50;;;;;;;;;;;3.30;99.90;;;;;;5110872;28;19988;-70
2020/12/11 10:14:30;;;;;;;;;;;3.20;99.90;;;;;;5112881;28;19977;-71
2020/12/11 10:16:56;;;;;;;;;;;3.20;99.90;;;;;;5109892;28;20018;-72
2020/12/11 10:19:23;;;;;;;;;;;3.20;99.90;;;;;;5113183;28;19986;-72
2020/12/11 10:21:50;;;;;;;;;;;3.20;99.90;;;;;;5109997;28;20318;-70
2020/12/11 10:24:16;;;;;;;;;;;3.30;99.90;;;;;;5113125;28;20399;-71
2020/12/11 10:26:43;;;;;;;;;;;3.50;99.90;;;;;;5110875;27;19924;-71
2020/12/11 10:29:10;;;;;;;;;;;3.40;99.90;;;;;;5112392;28;19928;-72
2020/12/11 10:31:36;;;;;;;;;;;3.60;99.90;;;;;;5110350;28;19924;-72
2020/12/11 10:34:03;;;;;;;;;;;4.00;99.90;;;;;;5112274;28;20360;-72
2020/12/11 10:36:30;;;;;;;;;;;4.00;99.90;;;;;;5110851;28;19927;-71
2020/12/11 10:38:56;;;;;;;;;;;4.10;99.90;;;;;;5090633;28;19955;-72
2020/12/11 10:41:23;;;;;;;;;;;4.00;99.90;;;;;;5092565;28;19924;-73
2020/12/11 10:43:49;;;;;;;;;;;4.00;99.90;;;;;;5108448;28;19924;-73
2020/12/11 10:46:17;;;;;;;;;;;3.90;99.90;;;;;;5112702;28;20360;-71
2020/12/11 10:48:43;;;;;;;;;;;3.90;99.90;;;;;;5110972;28;20011;-72
2020/12/11 10:51:10;;;;;;;;;;;3.90;99.90;;;;;;5112032;28;19924;-71
2020/12/11 10:53:37;;;;;;;;;;;4.10;99.90;;;;;;5110071;28;19924;-72
2020/12/11 10:56:04;;;;;;;;;;;4.20;99.90;;;;;;5112193;28;19930;-71
2020/12/11 10:58:30;;;;;;;;;;;4.30;99.90;;;;;;5109851;28;19928;-71
2020/12/11 11:00:57;;;;;;;;;;;4.30;99.90;;;;;;5111974;28;19924;-72
2020/12/11 11:03:27;;;;;;;;;;;4.20;99.90;;;;;;5109891;28;20403;-72
2020/12/11 11:05:54;;;;;;;;;;;4.30;99.90;;;;;;5112210;28;19924;-72
2020/12/11 11:08:21;;;;;;;;;;;4.50;99.90;;;;;;5092716;28;19925;-72
2020/12/11 11:10:49;;;;;;;;;;;4.40;99.90;;;;;;5116293;28;20011;-72
2020/12/11 11:13:23;;;;;;;;;;;4.30;99.90;;;;;;5114650;27;20402;-72
2020/12/11 11:15:51;;;;;;;;;;;4.50;99.90;;;;;;5116026;28;19971;-73
2020/12/11 11:24:16;;;;;;;;;;;4.40;99.90;;;;;;5113530;28;20026;-72
2020/12/11 11:26:56;;;;;;;;;;;4.30;99.90;;;;;;5116033;28;19930;-72
2020/12/11 11:29:23;;;;;;;;;;;4.40;99.90;;;;;;5095476;28;19923;-71
2020/12/11 11:31:49;;;;;;;;;;;4.20;99.90;;;;;;5115402;28;19923;-75
2020/12/11 11:34:15;;;;;;;;;;;4.40;99.90;;;;;;5113829;28;19927;-71
2020/12/11 11:36:42;;;;;;;;;;;4.40;99.90;;;;;;5114786;28;20022;-71
2020/12/11 11:39:09;;;;;;;;;;;4.40;99.90;;;;;;5112998;28;19943;-71
2020/12/11 11:41:47;;;;;;;;;;;4.50;99.90;;;;;;5115833;28;19928;-72
2020/12/11 11:46:58;;;;;;;;;;;4.60;99.90;;;;;;5104591;28;19923;-72
2020/12/11 11:49:29;;;;;;;;;;;4.60;99.90;;;;;;5113586;28;19935;-72
2020/12/11 11:52:04;;;;;;;;;;;4.40;99.90;;;;;;5115069;28;19934;-72
2020/12/11 11:54:31;;;;;;;;;;;4.10;99.90;;;;;;5114108;28;19931;-71
2020/12/11 11:56:58;;;;;;;;;;;4.00;99.90;;;;;;5114223;28;20299;-72
2020/12/11 11:59:24;;;;;;;;;;;3.80;99.90;;;;;;5115384;28;19985;-74
2020/12/11 12:01:52;;;;;;;;;;;3.80;99.90;;;;;;5112211;28;19923;-73
2020/12/11 12:04:18;;;;;;;;;;;3.80;99.90;;;;;;5115521;28;19976;-71
2020/12/11 12:06:45;;;;;;;;;;;3.90;99.90;;;;;;5111154;28;20357;-71
2020/12/11 12:09:12;;;;;;;;;;;3.80;99.90;;;;;;5114586;28;19924;-71
2020/12/11 12:11:38;;;;;;;;;;;3.60;99.90;;;;;;5113054;28;19924;-71
2020/12/11 12:14:05;;;;;;;;;;;3.50;99.90;;;;;;5114796;28;19930;-72
2020/12/11 12:16:33;;;;;;;;;;;3.50;99.90;;;;;;5112946;28;19924;-72
2020/12/11 12:19:00;;;;;;;;;;;3.50;99.90;;;;;;5114886;27;20303;-72
2020/12/11 12:21:34;;;;;;;;;;;3.40;99.90;;;;;;5112330;28;20037;-73
2020/12/11 12:29:26;;;;;;;;;;;3.50;99.90;;;;;;5114726;28;19950;-73
2020/12/11 12:31:57;;;;;;;;;;;3.60;99.90;;;;;;5111155;28;20364;-72
2020/12/11 12:34:44;;;;;;;;;;;3.70;99.90;;;;;;5114802;27;19924;-71
2020/12/11 12:37:35;;;;;;;;;;;3.70;99.90;;;;;;5112874;28;19972;-72
2020/12/11 12:45:19;;;;;;;;;;;3.80;99.90;;;;;;5115176;28;20288;-72
2020/12/11 12:47:45;;;;;;;;;;;3.80;99.90;;;;;;5112140;28;19932;-72
2020/12/11 12:50:12;;;;;;;;;;;3.70;99.90;;;;;;5113765;28;20269;-72
2020/12/11 12:52:38;;;;;;;;;;;3.80;99.90;;;;;;5112201;28;19938;-72
2020/12/11 12:55:05;;;;;;;;;;;3.70;99.90;;;;;;5113800;28;20424;-72
2020/12/11 12:57:35;;;;;;;;;;;3.80;99.90;;;;;;5111771;28;20010;-72
2020/12/11 13:00:11;;;;;;;;;;;3.80;99.90;;;;;;5113706;28;19931;-72
2020/12/11 13:03:12;;;;;;;;;;;3.80;99.90;;;;;;5112245;28;20295;-72
2020/12/11 13:05:38;;;;;;;;;;;3.80;99.90;;;;;;5114572;28;19927;-72
2020/12/11 13:08:04;;;;;;;;;;;3.90;99.90;;;;;;5111550;27;19931;-72
2020/12/11 13:10:31;;;;;;;;;;;3.90;99.90;;;;;;5113601;28;19942;-71
2020/12/11 13:12:58;;;;;;;;;;;3.90;99.90;;;;;;5111433;28;20339;-72
2020/12/11 13:15:25;;;;;;;;;;;4.00;99.90;;;;;;5114252;28;19934;-73
2020/12/11 13:17:51;;;;;;;;;;;4.00;99.90;;;;;;5110974;28;19924;-72
2020/12/11 13:20:26;;;;;;;;;;;4.10;99.90;;;;;;5113895;28;19930;-72
2020/12/11 13:28:23;;;;;;;;;;;4.10;99.90;;;;;;5088327;28;20041;-72
2020/12/11 13:30:50;;;;;;;;;;;4.20;99.90;;;;;;5112612;28;19930;-76
2020/12/11 13:33:16;;;;;;;;;;;4.20;99.90;;;;;;5111969;28;20363;-72
2020/12/11 13:35:43;;;;;;;;;;;4.10;99.90;;;;;;5114214;28;19927;-71
2020/12/11 13:38:09;;;;;;;;;;;4.10;99.90;;;;;;5113328;28;19934;-71
2020/12/11 13:40:35;;;;;;;;;;;4.20;99.90;;;;;;5111017;28;19927;-72
2020/12/11 13:43:02;;;;;;;;;;;4.30;99.90;;;;;;5113044;28;19989;-72
2020/12/11 13:45:28;;;;;;;;;;;4.30;99.90;;;;;;5110933;27;19924;-73
2020/12/11 13:47:56;;;;;;;;;;;4.30;99.90;;;;;;5112824;28;20352;-72
2020/12/11 13:50:22;;;;;;;;;;;4.30;99.90;;;;;;5110686;28;19924;-72
2020/12/11 13:52:48;;;;;;;;;;;4.30;99.90;;;;;;5113200;28;19930;-80
2020/12/11 13:55:15;;;;;;;;;;;4.30;99.90;;;;;;5110874;28;20380;-70
2020/12/11 13:57:41;;;;;;;;;;;4.40;99.90;;;;;;5113752;28;19927;-71
2020/12/11 14:00:08;;;;;;;;;;;4.40;99.90;;;;;;5110363;28;19931;-70
2020/12/11 14:02:34;;;;;;;;;;;4.40;99.90;;;;;;5113074;28;19924;-71
2020/12/11 14:05:01;;;;;;;;;;;4.30;99.90;;;;;;5104710;28;19970;-71
2020/12/11 14:07:28;;;;;;;;;;;4.30;99.90;;;;;;5092876;28;19977;-71
2020/12/11 14:09:54;;;;;;;;;;;4.30;99.90;;;;;;5100778;28;20284;-71
2020/12/11 14:12:20;;;;;;;;;;;4.20;99.90;;;;;;5113086;28;20445;-71
2020/12/11 14:14:47;;;;;;;;;;;4.20;99.90;;;;;;5112910;28;19927;-71
2020/12/11 14:17:16;;;;;;;;;;;4.20;99.90;;;;;;5110605;28;20335;-71
2020/12/11 14:20:07;;;;;;;;;;;4.20;99.90;;;;;;5112872;28;19930;-71
2020/12/11 14:22:37;;;;;;;;;;;4.20;99.90;;;;;;5092843;28;20014;-71
2020/12/11 14:25:04;;;;;;;;;;;4.20;99.90;;;;;;5091753;28;19930;-71
2020/12/11 14:27:30;;;;;;;;;;;4.10;99.90;;;;;;5109032;28;19963;-73
2020/12/11 14:29:57;;;;;;;;;;;4.10;99.90;;;;;;5110785;28;20394;-72
2020/12/11 14:32:23;;;;;;;;;;;4.10;99.90;;;;;;5110088;28;20308;-71
2020/12/11 14:34:53;;;;;;;;;;;4.10;99.90;;;;;;5112122;28;19977;-73
2020/12/11 14:37:20;;;;;;;;;;;4.10;99.90;;;;;;5110823;28;20433;-70
2020/12/11 14:39:47;;;;;;;;;;;4.00;99.90;;;;;;5113087;28;19932;-70
2020/12/11 14:42:14;;;;;;;;;;;4.00;99.90;;;;;;5110227;28;20334;-71
2020/12/11 14:44:40;;;;;;;;;;;4.00;99.90;;;;;;5112428;28;19959;-71
2020/12/11 14:47:06;;;;;;;;;;;4.00;99.90;;;;;;5109614;28;20376;-70
2020/12/11 14:49:33;;;;;;;;;;;4.00;99.90;;;;;;5112784;28;19970;-71
2020/12/11 14:51:59;;;;;;;;;;;4.00;99.90;;;;;;5109197;28;19946;-71
2020/12/11 14:54:26;;;;;;;;;;;4.00;99.90;;;;;;5112588;28;19934;-72
2020/12/11 14:56:53;;;;;;;;;;;4.00;99.90;;;;;;5109658;28;19923;-71
2020/12/11 14:59:20;;;;;;;;;;;4.00;99.90;;;;;;5112401;28;19924;-71
2020/12/11 15:01:47;;;;;;;;;;;4.00;99.90;;;;;;5110093;28;19931;-71
2020/12/11 15:04:14;;;;;;;;;;;4.00;99.90;;;;;;5112426;28;19924;-71